Davis Monthan Air Force Base
KDMA : now visible

Airfield :











YOU CAN JOIN US ON...

 
LOGIN :

Register | Disclaimer

   EN    FR    IT 

 









Legend :    VFR   Marginal VFR   IFR   Intensive IFR   Very Intensive IFR
Visi :
Ceiling :
>= 8 km
>= 3000ft
5 to 8 km
1000 to 3000 ft
1500m to 5 km
500 to 1000 ft
800 to 1500m
200 to 500 ft
< 800m
< 200 ft
Symbols :   Thunderstorms  Fog  Heavy snow  Heavy precipitations  Wind > 20 kt







- Airport Elevation : 2704 ft


KDMA - Davis Monthan Air Force Base

CURRENT METAR :
  • 261456Z AUTO 15007KT 10SM CLR 24/02 A3002 RMK AO2 SLP125 T02350018 51006 $

EXPIRED METARs :
  • 261358Z AUTO 13003KT 10SM CLR 20/02 A3002 RMK AO2 SLP126 T01980017 $
  • 261258Z AUTO 13007KT 10SM CLR 17/01 A3001 RMK AO2 SLP123 T01720012 $

TAF TAF KDMA
Valid from the 26 at 14:00 until the 27 at 20:00 UTC


261353Z 2614/2720 15006KT 9999 SKC QNH2994INS
BECMG 2619/2620 26012KT 9999 SKC QNH2984INS
BECMG 2705/2706 16009KT 9999 SKC QNH2989INS TX35/2621Z TN14/2712Z
KZAB FIR / North America



MET'MAP, your aeronautical weather chart ! - Copyright ORBIFLY December 2007 - Disclaimer

ORBIFLY MET'MAP TEAM :

Programming & Development : Alexandra Zaïnal
Concept & Development : Baudouin d'Aumeries
Co-Development & Prog : Marc-Olivier Méhu
Technical & hardware support : Manuel Goepfert

Contact : metmap@orbifly.com




SOURCES & CREDITS :

   NOAA       Earth
Advisory